sensor_id;sensor_type;location;lat;lon;timestamp;P1;durP1;ratioP1;P2;durP2;ratioP2
36191;SDS011;22233;42.708;23.360;2022-08-19T00:00:28;4.43;;;3.78;;
36191;SDS011;22233;42.708;23.360;2022-08-19T00:02:54;4.65;;;4.25;;
36191;SDS011;22233;42.708;23.360;2022-08-19T00:05:20;5.30;;;4.45;;
36191;SDS011;22233;42.708;23.360;2022-08-19T00:07:47;4.65;;;4.22;;
36191;SDS011;22233;42.708;23.360;2022-08-19T00:10:14;5.97;;;4.90;;
36191;SDS011;22233;42.708;23.360;2022-08-19T00:12:40;7.22;;;5.93;;
36191;SDS011;22233;42.708;23.360;2022-08-19T00:15:07;4.82;;;4.30;;
36191;SDS011;22233;42.708;23.360;2022-08-19T00:17:41;6.93;;;4.55;;
36191;SDS011;22233;42.708;23.360;2022-08-19T00:20:09;8.57;;;4.50;;
36191;SDS011;22233;42.708;23.360;2022-08-19T00:22:36;4.90;;;4.20;;
36191;SDS011;22233;42.708;23.360;2022-08-19T00:25:02;7.30;;;4.73;;
36191;SDS011;22233;42.708;23.360;2022-08-19T00:27:28;5.80;;;4.60;;
36191;SDS011;22233;42.708;23.360;2022-08-19T00:29:54;4.90;;;4.47;;
36191;SDS011;22233;42.708;23.360;2022-08-19T00:32:19;6.50;;;5.22;;
36191;SDS011;22233;42.708;23.360;2022-08-19T00:34:45;7.07;;;5.22;;
36191;SDS011;22233;42.708;23.360;2022-08-19T00:37:11;9.10;;;5.80;;
36191;SDS011;22233;42.708;23.360;2022-08-19T00:39:36;9.23;;;7.05;;
36191;SDS011;22233;42.708;23.360;2022-08-19T00:42:02;9.35;;;5.95;;
36191;SDS011;22233;42.708;23.360;2022-08-19T00:44:28;9.75;;;5.70;;
36191;SDS011;22233;42.708;23.360;2022-08-19T00:46:56;6.18;;;5.60;;
36191;SDS011;22233;42.708;23.360;2022-08-19T00:49:34;6.93;;;6.20;;
36191;SDS011;22233;42.708;23.360;2022-08-19T00:52:06;9.05;;;6.40;;
36191;SDS011;22233;42.708;23.360;2022-08-19T00:54:39;8.13;;;6.60;;
36191;SDS011;22233;42.708;23.360;2022-08-19T00:57:06;9.95;;;6.40;;
36191;SDS011;22233;42.708;23.360;2022-08-19T00:59:37;8.98;;;6.55;;
36191;SDS011;22233;42.708;23.360;2022-08-19T01:02:04;9.95;;;6.72;;
36191;SDS011;22233;42.708;23.360;2022-08-19T01:04:30;9.27;;;6.90;;
36191;SDS011;22233;42.708;23.360;2022-08-19T01:06:56;9.25;;;6.57;;
36191;SDS011;22233;42.708;23.360;2022-08-19T01:11:49;11.38;;;7.47;;
36191;SDS011;22233;42.708;23.360;2022-08-19T01:14:15;8.30;;;6.15;;
36191;SDS011;22233;42.708;23.360;2022-08-19T01:16:42;7.55;;;6.60;;
36191;SDS011;22233;42.708;23.360;2022-08-19T01:19:18;7.72;;;6.32;;
36191;SDS011;22233;42.708;23.360;2022-08-19T01:22:02;7.07;;;6.30;;
36191;SDS011;22233;42.708;23.360;2022-08-19T01:24:33;7.97;;;6.47;;
36191;SDS011;22233;42.708;23.360;2022-08-19T01:26:58;6.75;;;6.22;;
36191;SDS011;22233;42.708;23.360;2022-08-19T01:29:24;7.45;;;6.70;;
36191;SDS011;22233;42.708;23.360;2022-08-19T01:31:50;7.20;;;6.38;;
36191;SDS011;22233;42.708;23.360;2022-08-19T01:34:17;7.45;;;6.68;;
36191;SDS011;22233;42.708;23.360;2022-08-19T01:36:45;7.10;;;6.38;;
36191;SDS011;22233;42.708;23.360;2022-08-19T01:39:13;7.30;;;6.55;;
36191;SDS011;22233;42.708;23.360;2022-08-19T01:41:43;7.82;;;6.63;;
36191;SDS011;22233;42.708;23.360;2022-08-19T01:44:09;7.80;;;6.43;;
36191;SDS011;22233;42.708;23.360;2022-08-19T01:46:35;6.75;;;6.10;;
36191;SDS011;22233;42.708;23.360;2022-08-19T01:49:01;8.05;;;6.25;;
36191;SDS011;22233;42.708;23.360;2022-08-19T01:51:28;6.15;;;5.53;;
36191;SDS011;22233;42.708;23.360;2022-08-19T01:53:55;7.75;;;6.50;;
36191;SDS011;22233;42.708;23.360;2022-08-19T01:56:22;8.43;;;6.63;;
36191;SDS011;22233;42.708;23.360;2022-08-19T01:59:02;8.52;;;6.18;;
36191;SDS011;22233;42.708;23.360;2022-08-19T02:01:29;8.55;;;7.25;;
36191;SDS011;22233;42.708;23.360;2022-08-19T02:03:57;9.10;;;6.55;;
36191;SDS011;22233;42.708;23.360;2022-08-19T02:06:23;8.70;;;6.53;;
36191;SDS011;22233;42.708;23.360;2022-08-19T02:08:49;11.07;;;6.82;;
36191;SDS011;22233;42.708;23.360;2022-08-19T02:11:22;11.65;;;7.30;;
36191;SDS011;22233;42.708;23.360;2022-08-19T02:13:58;11.65;;;7.38;;
36191;SDS011;22233;42.708;23.360;2022-08-19T02:16:27;11.57;;;7.68;;
36191;SDS011;22233;42.708;23.360;2022-08-19T02:18:52;12.95;;;6.85;;
36191;SDS011;22233;42.708;23.360;2022-08-19T02:21:20;9.75;;;7.22;;
36191;SDS011;22233;42.708;23.360;2022-08-19T02:23:47;16.27;;;7.88;;
36191;SDS011;22233;42.708;23.360;2022-08-19T02:26:13;9.98;;;7.28;;
36191;SDS011;22233;42.708;23.360;2022-08-19T02:28:40;7.57;;;6.80;;
36191;SDS011;22233;42.708;23.360;2022-08-19T02:31:11;8.45;;;7.43;;
36191;SDS011;22233;42.708;23.360;2022-08-19T02:33:40;9.77;;;8.02;;
36191;SDS011;22233;42.708;23.360;2022-08-19T02:36:06;11.70;;;7.88;;
36191;SDS011;22233;42.708;23.360;2022-08-19T02:38:32;10.10;;;8.60;;
36191;SDS011;22233;42.708;23.360;2022-08-19T02:40:59;10.00;;;8.50;;
36191;SDS011;22233;42.708;23.360;2022-08-19T02:43:27;11.38;;;8.43;;
36191;SDS011;22233;42.708;23.360;2022-08-19T02:45:54;9.02;;;7.30;;
36191;SDS011;22233;42.708;23.360;2022-08-19T02:48:20;13.00;;;7.10;;
36191;SDS011;22233;42.708;23.360;2022-08-19T02:50:48;8.82;;;7.28;;
36191;SDS011;22233;42.708;23.360;2022-08-19T02:53:20;9.35;;;8.07;;
36191;SDS011;22233;42.708;23.360;2022-08-19T02:55:48;9.05;;;7.40;;
36191;SDS011;22233;42.708;23.360;2022-08-19T02:58:15;10.23;;;8.02;;
36191;SDS011;22233;42.708;23.360;2022-08-19T03:00:45;8.35;;;7.57;;
36191;SDS011;22233;42.708;23.360;2022-08-19T03:03:17;11.32;;;8.38;;
36191;SDS011;22233;42.708;23.360;2022-08-19T03:05:43;10.77;;;8.57;;
36191;SDS011;22233;42.708;23.360;2022-08-19T03:08:10;10.73;;;8.80;;
36191;SDS011;22233;42.708;23.360;2022-08-19T03:13:12;11.23;;;8.65;;
36191;SDS011;22233;42.708;23.360;2022-08-19T03:15:44;12.15;;;9.85;;
36191;SDS011;22233;42.708;23.360;2022-08-19T03:18:11;11.38;;;8.93;;
36191;SDS011;22233;42.708;23.360;2022-08-19T03:20:41;10.85;;;9.20;;
36191;SDS011;22233;42.708;23.360;2022-08-19T03:23:12;10.23;;;9.23;;
36191;SDS011;22233;42.708;23.360;2022-08-19T03:25:39;11.75;;;9.18;;
36191;SDS011;22233;42.708;23.360;2022-08-19T03:28:07;11.13;;;9.68;;
36191;SDS011;22233;42.708;23.360;2022-08-19T03:30:32;14.60;;;9.25;;
36191;SDS011;22233;42.708;23.360;2022-08-19T03:32:58;10.32;;;9.05;;
36191;SDS011;22233;42.708;23.360;2022-08-19T03:35:24;9.77;;;8.88;;
36191;SDS011;22233;42.708;23.360;2022-08-19T03:37:49;9.90;;;8.38;;
36191;SDS011;22233;42.708;23.360;2022-08-19T03:40:15;12.80;;;9.20;;
36191;SDS011;22233;42.708;23.360;2022-08-19T03:42:41;11.52;;;9.75;;
36191;SDS011;22233;42.708;23.360;2022-08-19T03:45:07;12.48;;;9.07;;
36191;SDS011;22233;42.708;23.360;2022-08-19T03:47:33;13.48;;;9.95;;
36191;SDS011;22233;42.708;23.360;2022-08-19T03:49:58;12.13;;;9.38;;
36191;SDS011;22233;42.708;23.360;2022-08-19T03:52:24;13.13;;;9.07;;
36191;SDS011;22233;42.708;23.360;2022-08-19T03:54:49;12.00;;;10.50;;
36191;SDS011;22233;42.708;23.360;2022-08-19T03:57:14;14.98;;;11.15;;
36191;SDS011;22233;42.708;23.360;2022-08-19T03:59:40;9.23;;;8.35;;
36191;SDS011;22233;42.708;23.360;2022-08-19T04:02:07;14.88;;;9.80;;
36191;SDS011;22233;42.708;23.360;2022-08-19T04:04:35;15.00;;;10.07;;
36191;SDS011;22233;42.708;23.360;2022-08-19T04:07:02;15.45;;;10.73;;
36191;SDS011;22233;42.708;23.360;2022-08-19T04:09:28;13.88;;;10.68;;
36191;SDS011;22233;42.708;23.360;2022-08-19T04:11:54;16.75;;;11.77;;
36191;SDS011;22233;42.708;23.360;2022-08-19T04:14:25;17.35;;;11.40;;
36191;SDS011;22233;42.708;23.360;2022-08-19T04:16:55;14.48;;;9.98;;
36191;SDS011;22233;42.708;23.360;2022-08-19T04:19:21;14.57;;;9.83;;
36191;SDS011;22233;42.708;23.360;2022-08-19T04:21:48;15.48;;;10.00;;
36191;SDS011;22233;42.708;23.360;2022-08-19T04:26:40;15.30;;;9.32;;
36191;SDS011;22233;42.708;23.360;2022-08-19T04:29:07;16.85;;;10.15;;
36191;SDS011;22233;42.708;23.360;2022-08-19T04:31:38;12.65;;;9.60;;
36191;SDS011;22233;42.708;23.360;2022-08-19T04:36:33;10.35;;;9.30;;
36191;SDS011;22233;42.708;23.360;2022-08-19T04:39:10;11.80;;;10.60;;
36191;SDS011;22233;42.708;23.360;2022-08-19T04:41:38;12.30;;;10.77;;
36191;SDS011;22233;42.708;23.360;2022-08-19T04:44:22;15.20;;;10.75;;
36191;SDS011;22233;42.708;23.360;2022-08-19T04:46:48;13.50;;;11.38;;
36191;SDS011;22233;42.708;23.360;2022-08-19T04:49:15;11.70;;;10.60;;
36191;SDS011;22233;42.708;23.360;2022-08-19T04:51:43;14.57;;;11.57;;
36191;SDS011;22233;42.708;23.360;2022-08-19T04:54:12;12.93;;;11.05;;
36191;SDS011;22233;42.708;23.360;2022-08-19T04:56:38;16.15;;;11.35;;
36191;SDS011;22233;42.708;23.360;2022-08-19T04:59:05;13.13;;;10.38;;
36191;SDS011;22233;42.708;23.360;2022-08-19T05:01:31;12.73;;;11.07;;
36191;SDS011;22233;42.708;23.360;2022-08-19T05:03:58;14.63;;;10.00;;
36191;SDS011;22233;42.708;23.360;2022-08-19T05:06:25;16.35;;;10.68;;
36191;SDS011;22233;42.708;23.360;2022-08-19T05:08:51;13.55;;;9.57;;
36191;SDS011;22233;42.708;23.360;2022-08-19T05:11:18;12.80;;;9.80;;
36191;SDS011;22233;42.708;23.360;2022-08-19T05:13:46;12.38;;;9.13;;
36191;SDS011;22233;42.708;23.360;2022-08-19T05:18:39;16.17;;;9.68;;
36191;SDS011;22233;42.708;23.360;2022-08-19T05:21:24;14.27;;;9.30;;
36191;SDS011;22233;42.708;23.360;2022-08-19T05:24:09;14.63;;;9.30;;
36191;SDS011;22233;42.708;23.360;2022-08-19T05:26:45;13.10;;;8.40;;
36191;SDS011;22233;42.708;23.360;2022-08-19T05:29:14;13.55;;;9.75;;
36191;SDS011;22233;42.708;23.360;2022-08-19T05:31:41;10.93;;;8.82;;
36191;SDS011;22233;42.708;23.360;2022-08-19T05:34:06;13.32;;;8.88;;
36191;SDS011;22233;42.708;23.360;2022-08-19T05:36:36;11.90;;;8.95;;
36191;SDS011;22233;42.708;23.360;2022-08-19T05:39:07;13.43;;;9.68;;
36191;SDS011;22233;42.708;23.360;2022-08-19T05:41:33;11.48;;;9.00;;
36191;SDS011;22233;42.708;23.360;2022-08-19T05:44:03;12.07;;;8.98;;
36191;SDS011;22233;42.708;23.360;2022-08-19T05:46:31;15.90;;;9.50;;
36191;SDS011;22233;42.708;23.360;2022-08-19T05:48:57;16.85;;;10.05;;
36191;SDS011;22233;42.708;23.360;2022-08-19T05:51:23;23.25;;;11.88;;
36191;SDS011;22233;42.708;23.360;2022-08-19T05:53:49;28.17;;;13.13;;
36191;SDS011;22233;42.708;23.360;2022-08-19T05:56:16;22.52;;;10.48;;
36191;SDS011;22233;42.708;23.360;2022-08-19T05:58:43;16.38;;;10.75;;
36191;SDS011;22233;42.708;23.360;2022-08-19T06:03:37;13.40;;;9.65;;
36191;SDS011;22233;42.708;23.360;2022-08-19T06:06:04;11.95;;;9.73;;
36191;SDS011;22233;42.708;23.360;2022-08-19T06:08:31;12.13;;;9.27;;
36191;SDS011;22233;42.708;23.360;2022-08-19T06:10:57;11.20;;;10.05;;
36191;SDS011;22233;42.708;23.360;2022-08-19T06:13:23;13.88;;;8.55;;
36191;SDS011;22233;42.708;23.360;2022-08-19T06:15:49;19.50;;;10.18;;
36191;SDS011;22233;42.708;23.360;2022-08-19T06:18:15;11.93;;;9.43;;
36191;SDS011;22233;42.708;23.360;2022-08-19T06:20:41;13.68;;;10.10;;
36191;SDS011;22233;42.708;23.360;2022-08-19T06:23:07;12.88;;;9.73;;
36191;SDS011;22233;42.708;23.360;2022-08-19T06:25:34;14.30;;;9.40;;
36191;SDS011;22233;42.708;23.360;2022-08-19T06:28:00;15.52;;;9.77;;
36191;SDS011;22233;42.708;23.360;2022-08-19T06:30:26;14.85;;;9.05;;
36191;SDS011;22233;42.708;23.360;2022-08-19T06:32:52;11.55;;;7.60;;
36191;SDS011;22233;42.708;23.360;2022-08-19T06:35:18;11.30;;;8.02;;
36191;SDS011;22233;42.708;23.360;2022-08-19T06:37:44;13.48;;;9.65;;
36191;SDS011;22233;42.708;23.360;2022-08-19T06:40:10;10.75;;;9.30;;
36191;SDS011;22233;42.708;23.360;2022-08-19T06:42:37;12.45;;;7.90;;
36191;SDS011;22233;42.708;23.360;2022-08-19T06:45:04;8.93;;;7.60;;
36191;SDS011;22233;42.708;23.360;2022-08-19T06:47:31;11.65;;;7.68;;
36191;SDS011;22233;42.708;23.360;2022-08-19T06:49:58;13.47;;;7.77;;
36191;SDS011;22233;42.708;23.360;2022-08-19T06:52:33;12.18;;;7.78;;
36191;SDS011;22233;42.708;23.360;2022-08-19T06:55:00;12.70;;;7.78;;
36191;SDS011;22233;42.708;23.360;2022-08-19T06:57:26;17.35;;;8.00;;
36191;SDS011;22233;42.708;23.360;2022-08-19T06:59:52;10.73;;;7.25;;
36191;SDS011;22233;42.708;23.360;2022-08-19T07:02:18;11.80;;;7.65;;
36191;SDS011;22233;42.708;23.360;2022-08-19T07:04:44;13.40;;;7.30;;
36191;SDS011;22233;42.708;23.360;2022-08-19T07:07:11;11.15;;;7.30;;
36191;SDS011;22233;42.708;23.360;2022-08-19T07:09:40;11.15;;;6.60;;
36191;SDS011;22233;42.708;23.360;2022-08-19T07:12:08;8.50;;;6.88;;
36191;SDS011;22233;42.708;23.360;2022-08-19T07:17:02;11.77;;;6.35;;
36191;SDS011;22233;42.708;23.360;2022-08-19T07:19:29;8.23;;;5.70;;
36191;SDS011;22233;42.708;23.360;2022-08-19T07:21:56;13.02;;;6.35;;
36191;SDS011;22233;42.708;23.360;2022-08-19T07:24:22;11.75;;;6.85;;
36191;SDS011;22233;42.708;23.360;2022-08-19T07:26:50;7.18;;;6.28;;
36191;SDS011;22233;42.708;23.360;2022-08-19T07:31:43;11.68;;;6.68;;
36191;SDS011;22233;42.708;23.360;2022-08-19T07:34:10;16.98;;;6.60;;
36191;SDS011;22233;42.708;23.360;2022-08-19T07:36:39;10.55;;;6.50;;
36191;SDS011;22233;42.708;23.360;2022-08-19T07:39:17;11.75;;;6.80;;
36191;SDS011;22233;42.708;23.360;2022-08-19T07:41:48;10.63;;;6.43;;
36191;SDS011;22233;42.708;23.360;2022-08-19T07:44:15;9.43;;;6.50;;
36191;SDS011;22233;42.708;23.360;2022-08-19T07:46:46;10.10;;;6.28;;
36191;SDS011;22233;42.708;23.360;2022-08-19T07:49:14;9.30;;;7.55;;
36191;SDS011;22233;42.708;23.360;2022-08-19T07:51:48;12.75;;;6.72;;
36191;SDS011;22233;42.708;23.360;2022-08-19T07:54:16;9.98;;;6.40;;
36191;SDS011;22233;42.708;23.360;2022-08-19T07:56:42;10.32;;;6.43;;
36191;SDS011;22233;42.708;23.360;2022-08-19T07:59:08;8.65;;;5.95;;
36191;SDS011;22233;42.708;23.360;2022-08-19T08:01:34;10.25;;;6.13;;
36191;SDS011;22233;42.708;23.360;2022-08-19T08:04:00;13.65;;;6.35;;
36191;SDS011;22233;42.708;23.360;2022-08-19T08:06:44;7.18;;;5.97;;
36191;SDS011;22233;42.708;23.360;2022-08-19T08:09:30;8.70;;;6.35;;
36191;SDS011;22233;42.708;23.360;2022-08-19T08:12:18;8.95;;;6.35;;
36191;SDS011;22233;42.708;23.360;2022-08-19T08:14:49;8.43;;;6.05;;
36191;SDS011;22233;42.708;23.360;2022-08-19T08:17:20;9.88;;;6.55;;
36191;SDS011;22233;42.708;23.360;2022-08-19T08:19:47;7.70;;;6.55;;
36191;SDS011;22233;42.708;23.360;2022-08-19T08:22:16;13.73;;;5.57;;
36191;SDS011;22233;42.708;23.360;2022-08-19T08:25:06;7.47;;;5.28;;
36191;SDS011;22233;42.708;23.360;2022-08-19T08:27:43;8.75;;;5.97;;
36191;SDS011;22233;42.708;23.360;2022-08-19T08:30:11;9.18;;;5.65;;
36191;SDS011;22233;42.708;23.360;2022-08-19T08:32:42;11.57;;;6.18;;
36191;SDS011;22233;42.708;23.360;2022-08-19T08:35:08;10.48;;;5.93;;
36191;SDS011;22233;42.708;23.360;2022-08-19T08:37:37;10.30;;;5.90;;
36191;SDS011;22233;42.708;23.360;2022-08-19T08:40:05;8.35;;;5.43;;
36191;SDS011;22233;42.708;23.360;2022-08-19T08:42:36;10.30;;;5.80;;
36191;SDS011;22233;42.708;23.360;2022-08-19T08:45:13;12.02;;;6.03;;
36191;SDS011;22233;42.708;23.360;2022-08-19T08:47:43;12.77;;;5.47;;
36191;SDS011;22233;42.708;23.360;2022-08-19T08:52:47;11.55;;;5.18;;
36191;SDS011;22233;42.708;23.360;2022-08-19T08:55:20;10.27;;;5.57;;
36191;SDS011;22233;42.708;23.360;2022-08-19T09:00:15;9.55;;;6.15;;
36191;SDS011;22233;42.708;23.360;2022-08-19T09:02:44;8.98;;;6.40;;
36191;SDS011;22233;42.708;23.360;2022-08-19T09:05:10;10.55;;;6.28;;
36191;SDS011;22233;42.708;23.360;2022-08-19T09:07:45;10.25;;;6.30;;
36191;SDS011;22233;42.708;23.360;2022-08-19T09:10:20;11.18;;;6.05;;
36191;SDS011;22233;42.708;23.360;2022-08-19T09:16:10;6.65;;;4.70;;
36191;SDS011;22233;42.708;23.360;2022-08-19T09:18:46;7.63;;;5.13;;
36191;SDS011;22233;42.708;23.360;2022-08-19T09:21:15;9.10;;;4.82;;
36191;SDS011;22233;42.708;23.360;2022-08-19T09:23:41;8.35;;;4.80;;
36191;SDS011;22233;42.708;23.360;2022-08-19T09:26:17;7.22;;;4.40;;
36191;SDS011;22233;42.708;23.360;2022-08-19T09:28:45;7.75;;;4.72;;
36191;SDS011;22233;42.708;23.360;2022-08-19T09:31:13;5.80;;;4.95;;
36191;SDS011;22233;42.708;23.360;2022-08-19T09:33:40;8.95;;;4.97;;
36191;SDS011;22233;42.708;23.360;2022-08-19T09:36:09;6.55;;;4.82;;
36191;SDS011;22233;42.708;23.360;2022-08-19T09:38:37;7.45;;;4.38;;
36191;SDS011;22233;42.708;23.360;2022-08-19T09:41:06;11.02;;;4.10;;
36191;SDS011;22233;42.708;23.360;2022-08-19T09:43:33;6.75;;;3.75;;
36191;SDS011;22233;42.708;23.360;2022-08-19T09:46:02;4.93;;;3.60;;
36191;SDS011;22233;42.708;23.360;2022-08-19T09:48:30;4.85;;;3.22;;
36191;SDS011;22233;42.708;23.360;2022-08-19T09:51:01;5.93;;;3.78;;
36191;SDS011;22233;42.708;23.360;2022-08-19T09:53:33;10.93;;;3.85;;
36191;SDS011;22233;42.708;23.360;2022-08-19T09:56:03;7.32;;;4.00;;
36191;SDS011;22233;42.708;23.360;2022-08-19T09:58:29;4.35;;;3.47;;
36191;SDS011;22233;42.708;23.360;2022-08-19T10:00:55;4.80;;;3.47;;
36191;SDS011;22233;42.708;23.360;2022-08-19T10:03:21;4.85;;;3.78;;
36191;SDS011;22233;42.708;23.360;2022-08-19T10:05:48;6.35;;;3.55;;
36191;SDS011;22233;42.708;23.360;2022-08-19T10:08:13;5.10;;;3.73;;
36191;SDS011;22233;42.708;23.360;2022-08-19T10:10:40;5.50;;;3.88;;
36191;SDS011;22233;42.708;23.360;2022-08-19T10:13:09;6.35;;;3.72;;
36191;SDS011;22233;42.708;23.360;2022-08-19T10:15:35;4.63;;;3.70;;
36191;SDS011;22233;42.708;23.360;2022-08-19T10:18:00;5.30;;;4.23;;
36191;SDS011;22233;42.708;23.360;2022-08-19T10:20:26;4.43;;;4.03;;
36191;SDS011;22233;42.708;23.360;2022-08-19T10:22:51;5.87;;;3.80;;
36191;SDS011;22233;42.708;23.360;2022-08-19T10:25:17;5.57;;;4.00;;
36191;SDS011;22233;42.708;23.360;2022-08-19T10:27:42;5.57;;;3.93;;
36191;SDS011;22233;42.708;23.360;2022-08-19T10:30:08;6.03;;;4.30;;
36191;SDS011;22233;42.708;23.360;2022-08-19T10:32:35;4.43;;;3.88;;
36191;SDS011;22233;42.708;23.360;2022-08-19T10:35:01;4.53;;;3.90;;
36191;SDS011;22233;42.708;23.360;2022-08-19T10:39:53;5.03;;;4.10;;
36191;SDS011;22233;42.708;23.360;2022-08-19T10:42:18;9.63;;;4.77;;
36191;SDS011;22233;42.708;23.360;2022-08-19T10:44:44;5.47;;;4.20;;
36191;SDS011;22233;42.708;23.360;2022-08-19T10:47:10;4.67;;;4.27;;
36191;SDS011;22233;42.708;23.360;2022-08-19T10:49:36;5.03;;;4.03;;
36191;SDS011;22233;42.708;23.360;2022-08-19T10:52:24;3.78;;;3.47;;
36191;SDS011;22233;42.708;23.360;2022-08-19T10:54:58;5.20;;;4.30;;
36191;SDS011;22233;42.708;23.360;2022-08-19T10:57:46;5.45;;;4.40;;
36191;SDS011;22233;42.708;23.360;2022-08-19T11:00:12;4.40;;;4.07;;
36191;SDS011;22233;42.708;23.360;2022-08-19T11:02:38;10.32;;;4.93;;
36191;SDS011;22233;42.708;23.360;2022-08-19T11:05:04;6.20;;;4.33;;
36191;SDS011;22233;42.708;23.360;2022-08-19T11:07:30;6.82;;;4.25;;
36191;SDS011;22233;42.708;23.360;2022-08-19T11:09:55;5.97;;;5.03;;
36191;SDS011;22233;42.708;23.360;2022-08-19T11:12:21;6.93;;;4.50;;
36191;SDS011;22233;42.708;23.360;2022-08-19T11:14:46;7.20;;;4.33;;
36191;SDS011;22233;42.708;23.360;2022-08-19T11:17:15;5.03;;;4.53;;
36191;SDS011;22233;42.708;23.360;2022-08-19T11:19:41;5.95;;;4.88;;
36191;SDS011;22233;42.708;23.360;2022-08-19T11:22:07;5.53;;;4.88;;
36191;SDS011;22233;42.708;23.360;2022-08-19T11:24:35;6.78;;;4.90;;
36191;SDS011;22233;42.708;23.360;2022-08-19T11:27:05;5.55;;;4.25;;
36191;SDS011;22233;42.708;23.360;2022-08-19T11:29:34;8.18;;;4.30;;
36191;SDS011;22233;42.708;23.360;2022-08-19T11:32:03;7.68;;;4.20;;
36191;SDS011;22233;42.708;23.360;2022-08-19T11:34:31;10.85;;;5.00;;
36191;SDS011;22233;42.708;23.360;2022-08-19T11:36:57;6.70;;;4.67;;
36191;SDS011;22233;42.708;23.360;2022-08-19T11:39:24;9.07;;;4.72;;
36191;SDS011;22233;42.708;23.360;2022-08-19T11:41:51;5.32;;;4.80;;
36191;SDS011;22233;42.708;23.360;2022-08-19T11:44:16;9.63;;;4.67;;
36191;SDS011;22233;42.708;23.360;2022-08-19T11:46:43;9.50;;;5.20;;
36191;SDS011;22233;42.708;23.360;2022-08-19T11:49:11;6.93;;;5.00;;
36191;SDS011;22233;42.708;23.360;2022-08-19T11:54:04;5.73;;;4.87;;
36191;SDS011;22233;42.708;23.360;2022-08-19T11:56:30;4.70;;;4.30;;
36191;SDS011;22233;42.708;23.360;2022-08-19T11:58:56;7.90;;;4.97;;
36191;SDS011;22233;42.708;23.360;2022-08-19T12:01:23;7.80;;;4.63;;
36191;SDS011;22233;42.708;23.360;2022-08-19T12:03:50;6.07;;;4.80;;
36191;SDS011;22233;42.708;23.360;2022-08-19T12:06:18;6.47;;;4.53;;
36191;SDS011;22233;42.708;23.360;2022-08-19T12:08:50;5.78;;;4.90;;
36191;SDS011;22233;42.708;23.360;2022-08-19T12:11:16;7.82;;;4.70;;
36191;SDS011;22233;42.708;23.360;2022-08-19T12:13:42;6.40;;;5.20;;
36191;SDS011;22233;42.708;23.360;2022-08-19T12:16:15;6.97;;;4.85;;
36191;SDS011;22233;42.708;23.360;2022-08-19T12:18:43;9.23;;;5.25;;
36191;SDS011;22233;42.708;23.360;2022-08-19T12:21:12;6.43;;;4.38;;
36191;SDS011;22233;42.708;23.360;2022-08-19T12:23:39;6.30;;;4.80;;
36191;SDS011;22233;42.708;23.360;2022-08-19T12:26:05;5.75;;;4.50;;
36191;SDS011;22233;42.708;23.360;2022-08-19T12:28:31;5.20;;;4.70;;
36191;SDS011;22233;42.708;23.360;2022-08-19T12:30:57;5.50;;;4.37;;
36191;SDS011;22233;42.708;23.360;2022-08-19T12:33:22;6.63;;;4.87;;
36191;SDS011;22233;42.708;23.360;2022-08-19T12:35:50;5.68;;;4.50;;
36191;SDS011;22233;42.708;23.360;2022-08-19T12:38:16;7.72;;;4.57;;
36191;SDS011;22233;42.708;23.360;2022-08-19T12:40:46;7.90;;;4.63;;
36191;SDS011;22233;42.708;23.360;2022-08-19T12:43:12;6.90;;;4.72;;
36191;SDS011;22233;42.708;23.360;2022-08-19T12:45:40;6.88;;;4.80;;
36191;SDS011;22233;42.708;23.360;2022-08-19T12:48:07;5.22;;;4.82;;
36191;SDS011;22233;42.708;23.360;2022-08-19T12:50:32;5.93;;;4.67;;
36191;SDS011;22233;42.708;23.360;2022-08-19T12:52:57;6.50;;;4.80;;
36191;SDS011;22233;42.708;23.360;2022-08-19T12:55:23;7.67;;;4.70;;
36191;SDS011;22233;42.708;23.360;2022-08-19T12:57:49;7.53;;;4.80;;
36191;SDS011;22233;42.708;23.360;2022-08-19T13:00:16;8.23;;;5.07;;
36191;SDS011;22233;42.708;23.360;2022-08-19T13:02:46;5.38;;;4.75;;
36191;SDS011;22233;42.708;23.360;2022-08-19T13:05:15;7.50;;;4.75;;
36191;SDS011;22233;42.708;23.360;2022-08-19T13:07:48;6.78;;;4.65;;
36191;SDS011;22233;42.708;23.360;2022-08-19T13:10:15;5.25;;;4.70;;
36191;SDS011;22233;42.708;23.360;2022-08-19T13:12:43;10.50;;;5.05;;
36191;SDS011;22233;42.708;23.360;2022-08-19T13:15:10;6.50;;;5.03;;
36191;SDS011;22233;42.708;23.360;2022-08-19T13:17:38;7.82;;;4.90;;
36191;SDS011;22233;42.708;23.360;2022-08-19T13:20:04;7.32;;;4.40;;
36191;SDS011;22233;42.708;23.360;2022-08-19T13:22:32;8.15;;;5.10;;
36191;SDS011;22233;42.708;23.360;2022-08-19T13:24:58;4.87;;;4.43;;
36191;SDS011;22233;42.708;23.360;2022-08-19T13:27:23;4.93;;;4.10;;
36191;SDS011;22233;42.708;23.360;2022-08-19T13:29:48;5.77;;;4.50;;
36191;SDS011;22233;42.708;23.360;2022-08-19T13:32:32;8.73;;;4.50;;
36191;SDS011;22233;42.708;23.360;2022-08-19T13:35:17;4.88;;;4.38;;
36191;SDS011;22233;42.708;23.360;2022-08-19T13:37:43;7.60;;;4.88;;
36191;SDS011;22233;42.708;23.360;2022-08-19T13:40:17;5.05;;;4.55;;
36191;SDS011;22233;42.708;23.360;2022-08-19T13:42:47;8.50;;;4.45;;
36191;SDS011;22233;42.708;23.360;2022-08-19T13:45:15;5.22;;;4.70;;
36191;SDS011;22233;42.708;23.360;2022-08-19T13:47:44;5.00;;;4.53;;
36191;SDS011;22233;42.708;23.360;2022-08-19T13:50:14;4.88;;;4.22;;
36191;SDS011;22233;42.708;23.360;2022-08-19T13:52:42;5.63;;;4.45;;
36191;SDS011;22233;42.708;23.360;2022-08-19T13:55:09;7.15;;;4.53;;
36191;SDS011;22233;42.708;23.360;2022-08-19T13:57:36;4.97;;;4.18;;
36191;SDS011;22233;42.708;23.360;2022-08-19T14:00:06;5.18;;;4.10;;
36191;SDS011;22233;42.708;23.360;2022-08-19T14:02:35;7.15;;;4.47;;
36191;SDS011;22233;42.708;23.360;2022-08-19T14:05:02;6.82;;;4.82;;
36191;SDS011;22233;42.708;23.360;2022-08-19T14:07:28;5.00;;;4.43;;
36191;SDS011;22233;42.708;23.360;2022-08-19T14:09:54;5.10;;;4.60;;
36191;SDS011;22233;42.708;23.360;2022-08-19T14:12:20;6.97;;;4.57;;
36191;SDS011;22233;42.708;23.360;2022-08-19T14:17:11;7.47;;;4.87;;
36191;SDS011;22233;42.708;23.360;2022-08-19T14:19:37;7.97;;;4.93;;
36191;SDS011;22233;42.708;23.360;2022-08-19T14:22:02;10.13;;;5.50;;
36191;SDS011;22233;42.708;23.360;2022-08-19T14:24:28;6.90;;;4.85;;
36191;SDS011;22233;42.708;23.360;2022-08-19T14:26:53;5.57;;;4.70;;
36191;SDS011;22233;42.708;23.360;2022-08-19T14:29:19;6.83;;;4.80;;
36191;SDS011;22233;42.708;23.360;2022-08-19T14:31:44;7.30;;;5.13;;
36191;SDS011;22233;42.708;23.360;2022-08-19T14:34:10;5.43;;;4.43;;
36191;SDS011;22233;42.708;23.360;2022-08-19T14:36:36;5.00;;;4.50;;
36191;SDS011;22233;42.708;23.360;2022-08-19T14:43:55;8.38;;;5.35;;
36191;SDS011;22233;42.708;23.360;2022-08-19T14:46:22;6.65;;;4.90;;
36191;SDS011;22233;42.708;23.360;2022-08-19T14:48:50;5.95;;;4.50;;
36191;SDS011;22233;42.708;23.360;2022-08-19T14:56:12;5.38;;;4.63;;
36191;SDS011;22233;42.708;23.360;2022-08-19T14:58:39;5.97;;;5.15;;
36191;SDS011;22233;42.708;23.360;2022-08-19T15:01:06;6.63;;;5.00;;
36191;SDS011;22233;42.708;23.360;2022-08-19T15:03:32;4.88;;;4.38;;
36191;SDS011;22233;42.708;23.360;2022-08-19T15:05:59;6.53;;;5.07;;
36191;SDS011;22233;42.708;23.360;2022-08-19T15:08:26;5.60;;;4.50;;
36191;SDS011;22233;42.708;23.360;2022-08-19T15:10:53;7.07;;;4.82;;
36191;SDS011;22233;42.708;23.360;2022-08-19T15:13:19;7.00;;;5.03;;
36191;SDS011;22233;42.708;23.360;2022-08-19T15:15:45;6.53;;;5.83;;
36191;SDS011;22233;42.708;23.360;2022-08-19T15:18:12;6.70;;;4.82;;